createdAt,value
2019-05-02T00:00:01.488Z,96872.30
2019-05-02T00:05:09.091Z,96873.78
2019-05-02T00:10:15.474Z,96869.70
2019-05-02T00:15:20.138Z,96865.62
2019-05-02T00:20:25.834Z,96870.42
2019-05-02T00:25:31.057Z,96867.59
2019-05-02T00:30:36.156Z,96866.52
2019-05-02T00:35:46.321Z,96876.48
2019-05-02T00:40:48.338Z,96880.72
2019-05-02T00:45:55.041Z,96880.73
2019-05-02T00:50:59.566Z,96874.23
2019-05-02T00:56:05.164Z,96874.02
2019-05-02T01:01:12.330Z,96875.04
2019-05-02T01:06:17.174Z,96879.75
2019-05-02T01:11:21.817Z,96877.02
2019-05-02T01:16:26.558Z,96886.79
2019-05-02T01:21:34.023Z,96885.89
2019-05-02T01:26:39.118Z,96886.36
2019-05-02T01:31:49.899Z,96895.91
2019-05-02T01:37:03.347Z,96892.13
2019-05-02T01:42:08.092Z,96889.23
2019-05-02T01:47:12.836Z,96893.56
2019-05-02T01:52:23.769Z,96901.75
2019-05-02T01:57:25.897Z,96906.64
2019-05-02T02:02:32.811Z,96904.66
2019-05-02T02:07:36.826Z,96908.02
2019-05-02T02:13:02.178Z,96909.66
2019-05-02T02:17:51.482Z,96911.98
2019-05-02T02:22:56.585Z,96914.75
2019-05-02T02:28:01.228Z,96919.84
2019-05-02T02:33:07.609Z,96920.30
2019-05-02T02:38:12.362Z,96915.17
2019-05-02T02:43:33.488Z,96905.25
2019-05-02T02:48:23.783Z,96902.02
2019-05-02T02:53:31.605Z,96902.38
2019-05-02T02:58:46.227Z,96900.19
2019-05-02T03:03:42.937Z,96900.38
2019-05-02T03:08:49.197Z,96904.45
2019-05-02T03:14:06.184Z,96906.97
2019-05-02T03:19:04.635Z,96905.85
2019-05-02T03:24:09.277Z,96908.69
2019-05-02T03:29:14.023Z,96911.23
2019-05-02T03:34:18.765Z,96921.63
2019-05-02T03:39:23.402Z,96926.56
2019-05-02T03:44:28.035Z,96921.50
2019-05-02T03:49:32.695Z,96929.34
2019-05-02T03:54:48.681Z,96926.66
2019-05-02T03:59:44.118Z,96927.34
2019-05-02T04:04:54.330Z,96936.59
2019-05-02T04:09:56.577Z,96936.67
2019-05-02T04:15:01.445Z,96939.84
2019-05-02T04:20:09.603Z,96945.49
2019-05-02T04:25:12.542Z,96944.75
2019-05-02T04:30:17.303Z,96954.97
2019-05-02T04:35:22.034Z,96963.78
2019-05-02T04:40:28.324Z,96965.47
2019-05-02T04:45:47.304Z,96965.11
2019-05-02T04:50:39.439Z,96965.56
2019-05-02T04:55:52.128Z,96964.24
2019-05-02T05:00:58.134Z,96972.92
2019-05-02T05:05:59.480Z,96975.66
2019-05-02T05:11:04.757Z,96981.43
2019-05-02T05:16:15.268Z,96990.41
2019-05-02T05:21:17.888Z,96983.94
2019-05-02T05:26:22.887Z,96987.41
2019-05-02T05:31:29.422Z,96992.88
2019-05-02T05:36:35.123Z,96993.02
2019-05-02T05:41:42.776Z,96996.97
2019-05-02T05:46:48.901Z,97001.66
2019-05-02T05:51:54.502Z,97008.78
2019-05-02T05:56:59.211Z,97004.59
2019-05-02T06:02:14.716Z,97007.67
2019-05-02T06:07:20.044Z,97015.52
2019-05-02T06:12:26.060Z,97007.56
2019-05-02T06:17:31.521Z,97010.47
2019-05-02T06:22:36.282Z,97014.80
2019-05-02T06:27:40.881Z,97010.95
2019-05-02T06:32:45.637Z,97007.78
2019-05-02T06:37:51.862Z,97020.11
2019-05-02T06:42:56.867Z,97021.11
2019-05-02T06:48:01.494Z,97027.72
2019-05-02T06:53:09.751Z,97026.73
2019-05-02T06:58:12.532Z,97031.73
2019-05-02T07:03:17.580Z,97028.70
2019-05-02T07:08:22.348Z,97027.23
2019-05-02T07:13:27.066Z,97024.91
2019-05-02T07:18:33.243Z,97023.64
2019-05-02T07:23:37.891Z,97026.58
2019-05-02T07:28:45.741Z,97027.53
2019-05-02T07:33:48.908Z,97028.31
2019-05-02T07:38:57.610Z,97027.50
2019-05-02T07:44:00.748Z,97033.65
2019-05-02T07:49:06.053Z,97031.84
2019-05-02T07:54:10.755Z,97032.73
2019-05-02T07:59:18.681Z,97037.04
2019-05-02T08:04:21.877Z,97027.62
2019-05-02T08:09:26.720Z,97028.02
2019-05-02T08:14:34.686Z,97023.98
2019-05-02T08:19:41.814Z,97023.10
2019-05-02T08:24:47.701Z,97023.31
2019-05-02T08:29:53.379Z,97025.28
2019-05-02T08:34:58.112Z,97021.24
2019-05-02T08:40:05.362Z,97025.95
2019-05-02T08:45:09.964Z,97025.11
2019-05-02T08:50:14.605Z,97019.14
2019-05-02T08:55:19.244Z,97019.46
2019-05-02T09:00:24.098Z,97020.77
2019-05-02T09:05:28.737Z,97019.94
2019-05-02T09:10:37.028Z,97024.55
2019-05-02T09:15:40.444Z,97016.61
2019-05-02T09:20:46.908Z,97010.23
2019-05-02T09:25:52.418Z,97012.13
2019-05-02T09:30:57.373Z,97008.70
2019-05-02T09:36:03.648Z,97019.13
2019-05-02T09:41:16.907Z,97012.13
2019-05-02T09:46:16.579Z,97005.86
2019-05-02T09:51:23.448Z,97001.58
2019-05-02T09:56:28.275Z,96992.16
2019-05-02T10:01:34.639Z,96987.72
2019-05-02T10:06:39.494Z,96991.16
2019-05-02T10:11:44.232Z,96983.67
2019-05-02T10:16:48.867Z,96986.23
2019-05-02T10:21:56.225Z,96977.88
2019-05-02T10:27:04.136Z,96974.54
2019-05-02T10:32:07.624Z,96958.31
2019-05-02T10:37:12.971Z,96968.89
2019-05-02T10:42:19.040Z,96960.77
2019-05-02T10:47:25.120Z,96960.20
2019-05-02T10:52:32.189Z,96957.73
2019-05-02T10:57:36.138Z,96945.14
2019-05-02T11:02:45.492Z,96944.30
2019-05-02T11:07:52.270Z,96944.78
2019-05-02T11:13:14.946Z,96943.26
2019-05-02T11:18:22.171Z,96943.92
2019-05-02T11:23:28.760Z,96946.11
2019-05-02T11:28:33.477Z,96937.11
2019-05-02T11:33:38.227Z,96924.06
2019-05-02T11:38:48.570Z,96925.97
2019-05-02T11:43:49.249Z,96926.11
2019-05-02T11:48:58.334Z,96913.95
2019-05-02T11:54:07.618Z,96907.66
2019-05-02T11:59:06.861Z,96907.27
2019-05-02T12:04:16.739Z,96911.28
2019-05-02T12:09:20.032Z,96899.17
2019-05-02T12:15:02.403Z,96890.41
2019-05-02T12:20:06.638Z,96891.58
2019-05-02T12:25:12.772Z,96896.19
2019-05-02T12:30:37.666Z,96898.11
2019-05-02T12:35:43.225Z,96887.94
2019-05-02T12:40:47.704Z,96879.83
2019-05-02T12:45:52.977Z,96882.94
2019-05-02T12:51:01.862Z,96873.95
2019-05-02T12:56:07.074Z,96870.63
2019-05-02T13:01:12.250Z,96866.37
2019-05-02T13:06:17.264Z,96866.58
2019-05-02T13:11:28.132Z,96849.24
2019-05-02T13:16:33.527Z,96855.05
2019-05-02T13:21:59.420Z,96852.56
2019-05-02T13:27:04.424Z,96838.55
2019-05-02T13:32:16.911Z,96830.98
2019-05-02T13:37:22.425Z,96833.75
2019-05-02T13:42:26.801Z,96833.80
2019-05-02T13:47:32.518Z,96822.75
2019-05-02T13:52:37.416Z,96818.64
2019-05-02T13:57:46.960Z,96819.38
2019-05-02T14:02:48.542Z,96827.23
2019-05-02T14:07:57.198Z,96825.02
2019-05-02T14:13:03.440Z,96825.05
2019-05-02T14:18:08.301Z,96825.17
2019-05-02T14:23:12.946Z,96824.69
2019-05-02T14:28:17.687Z,96822.13
2019-05-02T14:33:23.966Z,96828.34
2019-05-02T14:38:28.612Z,96823.11
2019-05-02T14:43:54.828Z,96826.11
2019-05-02T14:48:59.601Z,96826.73
2019-05-02T14:54:08.422Z,96819.52
2019-05-02T14:59:15.287Z,96824.43
2019-05-02T15:04:19.464Z,96825.10
2019-05-02T15:09:26.775Z,96834.28
2019-05-02T15:14:33.014Z,96831.16
2019-05-02T15:19:38.203Z,96834.55
2019-05-02T15:24:43.043Z,96834.61
2019-05-02T15:29:47.693Z,96834.91
2019-05-02T15:35:05.645Z,96847.09
2019-05-02T15:45:20.386Z,96853.23
2019-05-02T15:50:25.933Z,96847.45
2019-05-02T15:55:32.453Z,96850.00
2019-05-02T16:00:39.393Z,96848.44
2019-05-02T16:05:45.882Z,96844.97
2019-05-02T16:10:50.627Z,96852.55
2019-05-02T16:15:57.172Z,96852.80
2019-05-02T16:21:09.124Z,96852.03
2019-05-02T16:26:15.201Z,96854.61
2019-05-02T16:31:22.082Z,96847.55
2019-05-02T16:36:35.692Z,96851.17
2019-05-02T16:41:41.353Z,96864.69
2019-05-02T16:46:46.404Z,96872.24
2019-05-02T16:51:57.431Z,96875.33
2019-05-02T16:57:03.519Z,96879.93
2019-05-02T17:02:09.102Z,96877.86
2019-05-02T17:07:17.215Z,96886.29
2019-05-02T17:12:23.693Z,96893.51
2019-05-02T17:17:31.653Z,96898.22
2019-05-02T17:22:36.159Z,96899.39
2019-05-02T17:27:42.641Z,96909.88
2019-05-02T17:32:50.046Z,96911.34
2019-05-02T17:37:54.794Z,96924.52
2019-05-02T17:43:04.972Z,96923.88
2019-05-02T17:48:15.725Z,96939.13
2019-05-02T17:53:14.549Z,96943.88
2019-05-02T17:58:19.293Z,96953.03
2019-05-02T18:03:30.755Z,96960.45
2019-05-02T18:08:31.940Z,96961.55
2019-05-02T18:13:36.825Z,96972.36
2019-05-02T18:18:43.690Z,96974.05
2019-05-02T18:23:49.319Z,96980.23
2019-05-02T18:28:57.217Z,96984.89
2019-05-02T18:34:02.636Z,96993.35
2019-05-02T18:39:08.958Z,97008.40
2019-05-02T18:44:18.774Z,97004.76
2019-05-02T18:49:25.172Z,97011.28
2019-05-02T18:54:31.543Z,97022.17
2019-05-02T18:59:36.304Z,97026.70
2019-05-02T19:04:42.334Z,97035.53
2019-05-02T19:09:51.063Z,97050.92
2019-05-02T19:14:57.575Z,97051.93
2019-05-02T19:19:59.884Z,97055.36
2019-05-02T19:25:05.473Z,97060.95
2019-05-02T19:30:11.201Z,97062.87
2019-05-02T19:35:15.944Z,97064.28
2019-05-02T19:40:28.147Z,97062.47
2019-05-02T19:45:32.715Z,97070.22
2019-05-02T19:50:41.698Z,97068.77
2019-05-02T19:55:44.444Z,97069.02
2019-05-02T20:00:49.593Z,97070.47
2019-05-02T20:05:56.784Z,97074.23
2019-05-02T20:11:02.171Z,97076.61
2019-05-02T20:16:09.263Z,97074.29
2019-05-02T20:21:32.668Z,97072.09
2019-05-02T20:26:37.784Z,97076.11
2019-05-02T20:31:42.525Z,97075.52
2019-05-02T20:36:47.169Z,97072.55
2019-05-02T20:41:53.649Z,97074.62
2019-05-02T20:46:58.399Z,97065.95
2019-05-02T20:52:03.522Z,97066.66
2019-05-02T20:57:08.444Z,97069.24
2019-05-02T21:02:13.387Z,97076.92
2019-05-02T21:08:11.963Z,97090.09
2019-05-02T21:13:17.945Z,97088.13
2019-05-02T21:18:24.637Z,97093.55
2019-05-02T21:23:41.872Z,97092.84
2019-05-02T21:28:36.145Z,97101.91
2019-05-02T21:33:42.711Z,97106.01
2019-05-02T21:38:48.736Z,97108.09
2019-05-02T21:43:55.004Z,97112.69
2019-05-02T21:48:59.958Z,97130.02
2019-05-02T21:54:09.181Z,97127.02
2019-05-02T21:59:14.450Z,97124.83
2019-05-02T22:04:19.079Z,97134.29
2019-05-02T22:09:23.817Z,97139.95
2019-05-02T22:14:29.698Z,97143.84
2019-05-02T22:19:34.633Z,97149.11
2019-05-02T22:24:39.477Z,97147.94
2019-05-02T22:29:45.048Z,97143.83
2019-05-02T22:34:49.891Z,97133.51
2019-05-02T22:39:59.087Z,97132.84
2019-05-02T22:45:05.205Z,97133.13
2019-05-02T22:50:10.057Z,97131.45
2019-05-02T22:55:14.670Z,97129.59
2019-05-02T23:00:19.340Z,97122.68
2019-05-02T23:05:24.042Z,97122.24
2019-05-02T23:10:28.722Z,97122.82
2019-05-02T23:15:33.461Z,97126.33
2019-05-02T23:20:38.113Z,97109.97
2019-05-02T23:25:59.437Z,97120.28
2019-05-02T23:31:04.153Z,97122.50
2019-05-02T23:36:08.828Z,97117.69
2019-05-02T23:41:15.209Z,97119.82
2019-05-02T23:46:22.225Z,97116.34
2019-05-02T23:51:28.206Z,97117.80
2019-05-02T23:56:32.717Z,97119.25
